sensor_id;sensor_type;location;lat;lon;timestamp;temperature;humidity
41762;DHT22;27441;50.860;0.258;2022-08-19T00:00:07;19.00;99.90
41762;DHT22;27441;50.860;0.258;2022-08-19T00:02:35;19.00;99.90
41762;DHT22;27441;50.860;0.258;2022-08-19T00:05:01;18.90;99.90
41762;DHT22;27441;50.860;0.258;2022-08-19T00:07:27;18.90;99.90
41762;DHT22;27441;50.860;0.258;2022-08-19T00:09:52;18.90;99.90
41762;DHT22;27441;50.860;0.258;2022-08-19T00:12:19;19.00;99.90
41762;DHT22;27441;50.860;0.258;2022-08-19T00:14:45;19.00;99.90
41762;DHT22;27441;50.860;0.258;2022-08-19T00:17:11;18.90;99.90
41762;DHT22;27441;50.860;0.258;2022-08-19T00:19:38;18.90;99.90
41762;DHT22;27441;50.860;0.258;2022-08-19T00:22:04;18.90;99.90
41762;DHT22;27441;50.860;0.258;2022-08-19T00:24:31;18.90;99.90
41762;DHT22;27441;50.860;0.258;2022-08-19T00:26:57;18.90;99.90
41762;DHT22;27441;50.860;0.258;2022-08-19T00:29:24;19.00;99.90
41762;DHT22;27441;50.860;0.258;2022-08-19T00:31:53;18.90;99.90
41762;DHT22;27441;50.860;0.258;2022-08-19T00:34:22;18.90;99.90
41762;DHT22;27441;50.860;0.258;2022-08-19T00:36:48;18.90;99.90
41762;DHT22;27441;50.860;0.258;2022-08-19T00:39:18;18.90;99.90
41762;DHT22;27441;50.860;0.258;2022-08-19T00:41:45;18.90;99.90
41762;DHT22;27441;50.860;0.258;2022-08-19T00:44:20;18.90;99.90
41762;DHT22;27441;50.860;0.258;2022-08-19T00:46:48;18.90;99.90
41762;DHT22;27441;50.860;0.258;2022-08-19T00:49:18;18.90;99.90
41762;DHT22;27441;50.860;0.258;2022-08-19T00:51:47;18.90;99.90
41762;DHT22;27441;50.860;0.258;2022-08-19T00:54:14;18.90;99.90
41762;DHT22;27441;50.860;0.258;2022-08-19T00:56:41;18.90;99.90
41762;DHT22;27441;50.860;0.258;2022-08-19T00:59:07;18.90;99.90
41762;DHT22;27441;50.860;0.258;2022-08-19T01:01:39;18.90;99.90
41762;DHT22;27441;50.860;0.258;2022-08-19T01:04:06;18.90;99.90
41762;DHT22;27441;50.860;0.258;2022-08-19T01:06:33;18.90;99.90
41762;DHT22;27441;50.860;0.258;2022-08-19T01:09:01;18.90;99.90
41762;DHT22;27441;50.860;0.258;2022-08-19T01:11:27;18.80;99.90
41762;DHT22;27441;50.860;0.258;2022-08-19T01:13:54;18.90;99.90
41762;DHT22;27441;50.860;0.258;2022-08-19T01:16:23;18.90;99.90
41762;DHT22;27441;50.860;0.258;2022-08-19T01:18:49;18.90;99.90
41762;DHT22;27441;50.860;0.258;2022-08-19T01:21:32;18.80;99.90
41762;DHT22;27441;50.860;0.258;2022-08-19T01:24:00;18.90;99.90
41762;DHT22;27441;50.860;0.258;2022-08-19T01:26:26;18.90;99.90
41762;DHT22;27441;50.860;0.258;2022-08-19T01:28:55;18.90;99.90
41762;DHT22;27441;50.860;0.258;2022-08-19T01:31:24;18.90;99.90
41762;DHT22;27441;50.860;0.258;2022-08-19T01:33:52;18.90;99.90
41762;DHT22;27441;50.860;0.258;2022-08-19T01:36:26;18.90;99.90
41762;DHT22;27441;50.860;0.258;2022-08-19T01:38:52;18.90;99.90
41762;DHT22;27441;50.860;0.258;2022-08-19T01:41:18;18.90;99.90
41762;DHT22;27441;50.860;0.258;2022-08-19T01:43:45;18.90;99.90
41762;DHT22;27441;50.860;0.258;2022-08-19T01:46:11;18.90;99.90
41762;DHT22;27441;50.860;0.258;2022-08-19T01:48:39;19.00;99.90
41762;DHT22;27441;50.860;0.258;2022-08-19T01:51:06;18.90;99.90
41762;DHT22;27441;50.860;0.258;2022-08-19T01:53:32;18.90;99.90
41762;DHT22;27441;50.860;0.258;2022-08-19T01:55:58;19.00;99.90
41762;DHT22;27441;50.860;0.258;2022-08-19T01:58:29;18.90;99.90
41762;DHT22;27441;50.860;0.258;2022-08-19T02:00:56;18.90;99.90
41762;DHT22;27441;50.860;0.258;2022-08-19T02:03:22;18.90;99.90
41762;DHT22;27441;50.860;0.258;2022-08-19T02:05:55;19.00;99.90
41762;DHT22;27441;50.860;0.258;2022-08-19T02:08:21;18.90;99.90
41762;DHT22;27441;50.860;0.258;2022-08-19T02:10:47;19.00;99.90
41762;DHT22;27441;50.860;0.258;2022-08-19T02:13:13;18.90;99.90
41762;DHT22;27441;50.860;0.258;2022-08-19T02:15:40;18.90;99.90
41762;DHT22;27441;50.860;0.258;2022-08-19T02:18:06;18.90;99.90
41762;DHT22;27441;50.860;0.258;2022-08-19T02:20:32;18.90;99.90
41762;DHT22;27441;50.860;0.258;2022-08-19T02:22:59;18.90;99.90
41762;DHT22;27441;50.860;0.258;2022-08-19T02:25:27;18.90;99.90
41762;DHT22;27441;50.860;0.258;2022-08-19T02:27:52;18.90;99.90
41762;DHT22;27441;50.860;0.258;2022-08-19T02:30:20;18.90;99.90
41762;DHT22;27441;50.860;0.258;2022-08-19T02:32:46;18.90;99.90
41762;DHT22;27441;50.860;0.258;2022-08-19T02:35:15;18.90;99.90
41762;DHT22;27441;50.860;0.258;2022-08-19T02:37:41;18.90;99.90
41762;DHT22;27441;50.860;0.258;2022-08-19T02:40:27;18.90;99.90
41762;DHT22;27441;50.860;0.258;2022-08-19T02:42:53;18.90;99.90
41762;DHT22;27441;50.860;0.258;2022-08-19T02:45:19;18.80;99.90
41762;DHT22;27441;50.860;0.258;2022-08-19T02:47:45;18.80;99.90
41762;DHT22;27441;50.860;0.258;2022-08-19T02:50:11;18.80;99.90
41762;DHT22;27441;50.860;0.258;2022-08-19T02:52:38;18.90;99.90
41762;DHT22;27441;50.860;0.258;2022-08-19T02:55:04;18.90;99.90
41762;DHT22;27441;50.860;0.258;2022-08-19T02:57:31;18.90;99.90
41762;DHT22;27441;50.860;0.258;2022-08-19T02:59:58;18.80;99.90
41762;DHT22;27441;50.860;0.258;2022-08-19T03:02:24;18.80;99.90
41762;DHT22;27441;50.860;0.258;2022-08-19T03:04:49;18.90;99.90
41762;DHT22;27441;50.860;0.258;2022-08-19T03:07:18;18.90;99.90
41762;DHT22;27441;50.860;0.258;2022-08-19T03:09:44;18.80;99.90
41762;DHT22;27441;50.860;0.258;2022-08-19T03:12:10;18.80;99.90
41762;DHT22;27441;50.860;0.258;2022-08-19T03:14:36;18.80;99.90
41762;DHT22;27441;50.860;0.258;2022-08-19T03:17:03;18.80;99.90
41762;DHT22;27441;50.860;0.258;2022-08-19T03:19:30;18.80;99.90
41762;DHT22;27441;50.860;0.258;2022-08-19T03:21:57;18.80;99.90
41762;DHT22;27441;50.860;0.258;2022-08-19T03:24:24;18.80;99.90
41762;DHT22;27441;50.860;0.258;2022-08-19T03:26:52;18.90;99.90
41762;DHT22;27441;50.860;0.258;2022-08-19T03:29:23;18.80;99.90
41762;DHT22;27441;50.860;0.258;2022-08-19T03:31:49;18.80;99.90
41762;DHT22;27441;50.860;0.258;2022-08-19T03:34:23;18.70;99.90
41762;DHT22;27441;50.860;0.258;2022-08-19T03:36:52;18.90;99.90
41762;DHT22;27441;50.860;0.258;2022-08-19T03:39:19;18.80;99.90
41762;DHT22;27441;50.860;0.258;2022-08-19T03:41:47;18.90;99.90
41762;DHT22;27441;50.860;0.258;2022-08-19T03:44:18;18.90;99.90
41762;DHT22;27441;50.860;0.258;2022-08-19T03:46:53;18.80;99.90
41762;DHT22;27441;50.860;0.258;2022-08-19T03:49:22;18.80;99.90
41762;DHT22;27441;50.860;0.258;2022-08-19T03:51:49;18.70;99.90
41762;DHT22;27441;50.860;0.258;2022-08-19T03:54:18;18.70;99.90
41762;DHT22;27441;50.860;0.258;2022-08-19T03:56:47;18.70;99.90
41762;DHT22;27441;50.860;0.258;2022-08-19T03:59:21;18.80;99.90
41762;DHT22;27441;50.860;0.258;2022-08-19T04:01:47;18.80;99.90
41762;DHT22;27441;50.860;0.258;2022-08-19T04:04:13;18.80;99.90
41762;DHT22;27441;50.860;0.258;2022-08-19T04:06:39;18.70;99.90
41762;DHT22;27441;50.860;0.258;2022-08-19T04:09:07;18.70;99.90
41762;DHT22;27441;50.860;0.258;2022-08-19T04:11:39;18.70;99.90
41762;DHT22;27441;50.860;0.258;2022-08-19T04:14:18;18.70;99.90
41762;DHT22;27441;50.860;0.258;2022-08-19T04:16:44;18.80;99.90
41762;DHT22;27441;50.860;0.258;2022-08-19T04:19:11;18.80;99.90
41762;DHT22;27441;50.860;0.258;2022-08-19T04:21:36;18.80;99.90
41762;DHT22;27441;50.860;0.258;2022-08-19T04:24:03;18.80;99.90
41762;DHT22;27441;50.860;0.258;2022-08-19T04:26:35;18.70;99.90
41762;DHT22;27441;50.860;0.258;2022-08-19T04:29:05;18.80;99.90
41762;DHT22;27441;50.860;0.258;2022-08-19T04:31:32;18.70;99.90
41762;DHT22;27441;50.860;0.258;2022-08-19T04:34:04;18.70;99.90
41762;DHT22;27441;50.860;0.258;2022-08-19T04:36:32;18.80;99.90
41762;DHT22;27441;50.860;0.258;2022-08-19T04:39:01;18.70;99.90
41762;DHT22;27441;50.860;0.258;2022-08-19T04:41:28;18.80;99.90
41762;DHT22;27441;50.860;0.258;2022-08-19T04:44:13;18.70;99.90
41762;DHT22;27441;50.860;0.258;2022-08-19T04:46:39;18.80;99.90
41762;DHT22;27441;50.860;0.258;2022-08-19T04:49:06;18.80;99.90
41762;DHT22;27441;50.860;0.258;2022-08-19T04:51:34;18.80;99.90
41762;DHT22;27441;50.860;0.258;2022-08-19T04:54:02;18.80;99.90
41762;DHT22;27441;50.860;0.258;2022-08-19T04:56:28;18.90;99.90
41762;DHT22;27441;50.860;0.258;2022-08-19T04:58:56;18.80;99.90
41762;DHT22;27441;50.860;0.258;2022-08-19T05:01:24;18.80;99.90
41762;DHT22;27441;50.860;0.258;2022-08-19T05:03:51;18.90;99.90
41762;DHT22;27441;50.860;0.258;2022-08-19T05:06:19;18.80;99.90
41762;DHT22;27441;50.860;0.258;2022-08-19T05:08:45;18.80;99.90
41762;DHT22;27441;50.860;0.258;2022-08-19T05:11:14;18.90;99.90
41762;DHT22;27441;50.860;0.258;2022-08-19T05:13:41;18.80;99.90
41762;DHT22;27441;50.860;0.258;2022-08-19T05:16:10;18.90;99.90
41762;DHT22;27441;50.860;0.258;2022-08-19T05:18:37;18.90;99.90
41762;DHT22;27441;50.860;0.258;2022-08-19T05:21:21;18.90;99.90
41762;DHT22;27441;50.860;0.258;2022-08-19T05:24:07;18.90;99.90
41762;DHT22;27441;50.860;0.258;2022-08-19T05:26:37;18.90;99.90
41762;DHT22;27441;50.860;0.258;2022-08-19T05:29:04;18.90;99.90
41762;DHT22;27441;50.860;0.258;2022-08-19T05:31:30;18.90;99.90
41762;DHT22;27441;50.860;0.258;2022-08-19T05:33:57;18.90;99.90
41762;DHT22;27441;50.860;0.258;2022-08-19T05:36:27;19.00;99.90
41762;DHT22;27441;50.860;0.258;2022-08-19T05:38:54;19.00;99.90
41762;DHT22;27441;50.860;0.258;2022-08-19T05:41:21;19.00;99.90
41762;DHT22;27441;50.860;0.258;2022-08-19T05:44:01;19.00;99.90
41762;DHT22;27441;50.860;0.258;2022-08-19T05:46:27;19.00;99.90
41762;DHT22;27441;50.860;0.258;2022-08-19T05:48:52;19.10;99.90
41762;DHT22;27441;50.860;0.258;2022-08-19T05:51:22;19.10;99.90
41762;DHT22;27441;50.860;0.258;2022-08-19T05:53:48;19.10;99.90
41762;DHT22;27441;50.860;0.258;2022-08-19T05:56:15;19.10;99.90
41762;DHT22;27441;50.860;0.258;2022-08-19T05:58:42;19.00;99.90
41762;DHT22;27441;50.860;0.258;2022-08-19T06:01:15;19.00;99.90
41762;DHT22;27441;50.860;0.258;2022-08-19T06:03:41;19.00;99.90
41762;DHT22;27441;50.860;0.258;2022-08-19T06:06:08;19.10;99.90
41762;DHT22;27441;50.860;0.258;2022-08-19T06:08:35;19.10;99.90
41762;DHT22;27441;50.860;0.258;2022-08-19T06:11:21;19.00;99.90
41762;DHT22;27441;50.860;0.258;2022-08-19T06:13:49;19.10;99.90
41762;DHT22;27441;50.860;0.258;2022-08-19T06:16:20;19.20;99.90
41762;DHT22;27441;50.860;0.258;2022-08-19T06:18:50;19.20;99.90
41762;DHT22;27441;50.860;0.258;2022-08-19T06:21:21;19.20;99.90
41762;DHT22;27441;50.860;0.258;2022-08-19T06:23:48;19.20;99.90
41762;DHT22;27441;50.860;0.258;2022-08-19T06:26:16;19.30;99.90
41762;DHT22;27441;50.860;0.258;2022-08-19T06:28:42;19.30;99.90
41762;DHT22;27441;50.860;0.258;2022-08-19T06:31:08;19.30;99.90
41762;DHT22;27441;50.860;0.258;2022-08-19T06:33:35;19.30;99.90
41762;DHT22;27441;50.860;0.258;2022-08-19T06:36:01;19.50;99.90
41762;DHT22;27441;50.860;0.258;2022-08-19T06:38:26;19.50;99.90
41762;DHT22;27441;50.860;0.258;2022-08-19T06:41:00;19.50;99.90
41762;DHT22;27441;50.860;0.258;2022-08-19T06:43:26;19.50;99.90
41762;DHT22;27441;50.860;0.258;2022-08-19T06:45:52;19.50;99.90
41762;DHT22;27441;50.860;0.258;2022-08-19T06:48:18;19.60;99.90
41762;DHT22;27441;50.860;0.258;2022-08-19T06:50:43;19.60;99.90
41762;DHT22;27441;50.860;0.258;2022-08-19T06:53:09;19.50;99.90
41762;DHT22;27441;50.860;0.258;2022-08-19T06:55:35;19.50;99.90
41762;DHT22;27441;50.860;0.258;2022-08-19T06:58:04;19.60;99.90
41762;DHT22;27441;50.860;0.258;2022-08-19T07:00:30;19.60;99.90
41762;DHT22;27441;50.860;0.258;2022-08-19T07:02:56;19.70;99.90
41762;DHT22;27441;50.860;0.258;2022-08-19T07:05:22;19.70;99.90
41762;DHT22;27441;50.860;0.258;2022-08-19T07:07:48;19.80;99.90
41762;DHT22;27441;50.860;0.258;2022-08-19T07:10:15;19.80;99.90
41762;DHT22;27441;50.860;0.258;2022-08-19T07:12:41;19.90;99.90
41762;DHT22;27441;50.860;0.258;2022-08-19T07:15:07;19.80;99.90
41762;DHT22;27441;50.860;0.258;2022-08-19T07:17:35;19.80;99.90
41762;DHT22;27441;50.860;0.258;2022-08-19T07:20:03;19.90;99.90
41762;DHT22;27441;50.860;0.258;2022-08-19T07:22:29;20.00;99.90
41762;DHT22;27441;50.860;0.258;2022-08-19T07:24:56;20.00;99.90
41762;DHT22;27441;50.860;0.258;2022-08-19T07:27:21;20.00;99.90
41762;DHT22;27441;50.860;0.258;2022-08-19T07:29:47;19.90;99.90
41762;DHT22;27441;50.860;0.258;2022-08-19T07:32:13;20.00;99.90
41762;DHT22;27441;50.860;0.258;2022-08-19T07:34:39;20.10;99.90
41762;DHT22;27441;50.860;0.258;2022-08-19T07:37:06;20.20;99.90
41762;DHT22;27441;50.860;0.258;2022-08-19T07:39:34;20.20;99.90
41762;DHT22;27441;50.860;0.258;2022-08-19T07:42:05;20.20;99.90
41762;DHT22;27441;50.860;0.258;2022-08-19T07:44:32;20.30;99.90
41762;DHT22;27441;50.860;0.258;2022-08-19T07:46:59;20.40;99.90
41762;DHT22;27441;50.860;0.258;2022-08-19T07:49:26;20.40;99.90
41762;DHT22;27441;50.860;0.258;2022-08-19T07:51:54;20.40;99.90
41762;DHT22;27441;50.860;0.258;2022-08-19T07:54:23;20.40;99.90
41762;DHT22;27441;50.860;0.258;2022-08-19T07:56:48;20.40;99.90
41762;DHT22;27441;50.860;0.258;2022-08-19T07:59:17;20.40;99.90
41762;DHT22;27441;50.860;0.258;2022-08-19T08:01:43;20.60;99.90
41762;DHT22;27441;50.860;0.258;2022-08-19T08:04:10;20.60;99.90
41762;DHT22;27441;50.860;0.258;2022-08-19T08:06:54;20.60;99.90
41762;DHT22;27441;50.860;0.258;2022-08-19T08:09:41;20.60;99.90
41762;DHT22;27441;50.860;0.258;2022-08-19T08:12:15;20.60;99.90
41762;DHT22;27441;50.860;0.258;2022-08-19T08:14:48;20.60;99.90
41762;DHT22;27441;50.860;0.258;2022-08-19T08:17:16;20.60;99.90
41762;DHT22;27441;50.860;0.258;2022-08-19T08:19:42;20.60;99.90
41762;DHT22;27441;50.860;0.258;2022-08-19T08:22:10;20.50;99.90
41762;DHT22;27441;50.860;0.258;2022-08-19T08:24:56;20.50;99.90
41762;DHT22;27441;50.860;0.258;2022-08-19T08:27:24;20.50;99.90
41762;DHT22;27441;50.860;0.258;2022-08-19T08:29:50;20.50;99.90
41762;DHT22;27441;50.860;0.258;2022-08-19T08:32:16;20.40;99.90
41762;DHT22;27441;50.860;0.258;2022-08-19T08:34:42;20.40;99.90
41762;DHT22;27441;50.860;0.258;2022-08-19T08:37:08;20.60;99.90
41762;DHT22;27441;50.860;0.258;2022-08-19T08:39:33;20.70;99.90
41762;DHT22;27441;50.860;0.258;2022-08-19T08:42:23;20.70;99.90
41762;DHT22;27441;50.860;0.258;2022-08-19T08:45:00;20.80;99.90
41762;DHT22;27441;50.860;0.258;2022-08-19T08:47:32;21.00;99.90
41762;DHT22;27441;50.860;0.258;2022-08-19T08:50:07;21.00;99.90
41762;DHT22;27441;50.860;0.258;2022-08-19T08:52:42;21.20;99.90
41762;DHT22;27441;50.860;0.258;2022-08-19T08:55:23;21.20;99.90
41762;DHT22;27441;50.860;0.258;2022-08-19T08:57:54;21.20;99.90
41762;DHT22;27441;50.860;0.258;2022-08-19T09:00:27;21.20;99.90
41762;DHT22;27441;50.860;0.258;2022-08-19T09:02:55;21.30;99.90
41762;DHT22;27441;50.860;0.258;2022-08-19T09:05:25;21.50;99.90
41762;DHT22;27441;50.860;0.258;2022-08-19T09:08:02;21.60;99.90
41762;DHT22;27441;50.860;0.258;2022-08-19T09:10:42;21.60;99.90
41762;DHT22;27441;50.860;0.258;2022-08-19T09:15:46;21.70;99.90
41762;DHT22;27441;50.860;0.258;2022-08-19T09:18:14;21.80;99.90
41762;DHT22;27441;50.860;0.258;2022-08-19T09:20:40;21.80;99.90
41762;DHT22;27441;50.860;0.258;2022-08-19T09:23:05;21.80;99.90
41762;DHT22;27441;50.860;0.258;2022-08-19T09:25:31;21.70;99.90
41762;DHT22;27441;50.860;0.258;2022-08-19T09:28:00;21.50;99.90
41762;DHT22;27441;50.860;0.258;2022-08-19T09:30:34;21.40;99.90
41762;DHT22;27441;50.860;0.258;2022-08-19T09:33:01;21.40;99.90
41762;DHT22;27441;50.860;0.258;2022-08-19T09:35:29;21.40;99.90
41762;DHT22;27441;50.860;0.258;2022-08-19T09:37:56;21.40;99.90
41762;DHT22;27441;50.860;0.258;2022-08-19T09:40:22;21.40;99.90
41762;DHT22;27441;50.860;0.258;2022-08-19T09:42:48;21.40;99.90
41762;DHT22;27441;50.860;0.258;2022-08-19T09:45:16;21.30;99.90
41762;DHT22;27441;50.860;0.258;2022-08-19T09:47:43;21.30;99.90
41762;DHT22;27441;50.860;0.258;2022-08-19T09:50:11;21.40;99.90
41762;DHT22;27441;50.860;0.258;2022-08-19T09:52:38;21.90;99.90
41762;DHT22;27441;50.860;0.258;2022-08-19T09:55:05;22.40;99.90
41762;DHT22;27441;50.860;0.258;2022-08-19T09:57:31;22.70;99.90
41762;DHT22;27441;50.860;0.258;2022-08-19T09:59:57;22.50;99.90
41762;DHT22;27441;50.860;0.258;2022-08-19T10:02:23;22.30;99.90
41762;DHT22;27441;50.860;0.258;2022-08-19T10:04:50;22.20;99.90
41762;DHT22;27441;50.860;0.258;2022-08-19T10:07:34;21.90;99.90
41762;DHT22;27441;50.860;0.258;2022-08-19T10:10:01;21.50;99.90
41762;DHT22;27441;50.860;0.258;2022-08-19T10:12:26;21.40;99.90
41762;DHT22;27441;50.860;0.258;2022-08-19T10:14:52;21.60;99.90
41762;DHT22;27441;50.860;0.258;2022-08-19T10:17:19;21.80;99.90
41762;DHT22;27441;50.860;0.258;2022-08-19T10:19:46;21.90;99.90
41762;DHT22;27441;50.860;0.258;2022-08-19T10:22:12;21.80;99.90
41762;DHT22;27441;50.860;0.258;2022-08-19T10:24:39;21.50;99.90
41762;DHT22;27441;50.860;0.258;2022-08-19T10:27:07;21.60;99.90
41762;DHT22;27441;50.860;0.258;2022-08-19T10:29:35;21.50;99.90
41762;DHT22;27441;50.860;0.258;2022-08-19T10:32:03;21.50;99.90
41762;DHT22;27441;50.860;0.258;2022-08-19T10:34:31;21.60;99.90
41762;DHT22;27441;50.860;0.258;2022-08-19T10:36:58;21.60;99.90
41762;DHT22;27441;50.860;0.258;2022-08-19T10:39:26;21.70;99.90
41762;DHT22;27441;50.860;0.258;2022-08-19T10:41:53;21.80;99.90
41762;DHT22;27441;50.860;0.258;2022-08-19T10:44:21;21.90;99.90
41762;DHT22;27441;50.860;0.258;2022-08-19T10:46:48;22.00;99.90
41762;DHT22;27441;50.860;0.258;2022-08-19T10:49:15;21.90;99.90
41762;DHT22;27441;50.860;0.258;2022-08-19T10:51:41;21.90;99.90
41762;DHT22;27441;50.860;0.258;2022-08-19T10:54:26;22.00;99.90
41762;DHT22;27441;50.860;0.258;2022-08-19T10:57:12;22.10;99.90
41762;DHT22;27441;50.860;0.258;2022-08-19T10:59:38;22.20;99.90
41762;DHT22;27441;50.860;0.258;2022-08-19T11:02:07;22.20;99.90
41762;DHT22;27441;50.860;0.258;2022-08-19T11:04:35;22.20;99.90
41762;DHT22;27441;50.860;0.258;2022-08-19T11:07:01;22.40;99.90
41762;DHT22;27441;50.860;0.258;2022-08-19T11:09:28;22.50;99.90
41762;DHT22;27441;50.860;0.258;2022-08-19T11:11:54;22.60;99.90
41762;DHT22;27441;50.860;0.258;2022-08-19T11:14:22;22.80;99.90
41762;DHT22;27441;50.860;0.258;2022-08-19T11:16:51;22.90;99.90
41762;DHT22;27441;50.860;0.258;2022-08-19T11:19:21;23.20;99.90
41762;DHT22;27441;50.860;0.258;2022-08-19T11:21:50;23.60;99.90
41762;DHT22;27441;50.860;0.258;2022-08-19T11:24:19;24.20;99.90
41762;DHT22;27441;50.860;0.258;2022-08-19T11:26:46;25.10;99.90
41762;DHT22;27441;50.860;0.258;2022-08-19T11:29:13;25.40;99.90
41762;DHT22;27441;50.860;0.258;2022-08-19T11:31:45;25.10;99.90
41762;DHT22;27441;50.860;0.258;2022-08-19T11:34:17;24.20;99.90
41762;DHT22;27441;50.860;0.258;2022-08-19T11:36:44;23.40;99.90
41762;DHT22;27441;50.860;0.258;2022-08-19T11:39:12;22.80;99.90
41762;DHT22;27441;50.860;0.258;2022-08-19T11:41:38;22.40;99.90
41762;DHT22;27441;50.860;0.258;2022-08-19T11:44:04;22.30;99.90
41762;DHT22;27441;50.860;0.258;2022-08-19T11:46:34;22.10;99.90
41762;DHT22;27441;50.860;0.258;2022-08-19T11:49:00;21.90;99.90
41762;DHT22;27441;50.860;0.258;2022-08-19T11:51:29;21.70;99.90
41762;DHT22;27441;50.860;0.258;2022-08-19T11:53:57;21.60;99.90
41762;DHT22;27441;50.860;0.258;2022-08-19T11:56:24;21.60;99.90
41762;DHT22;27441;50.860;0.258;2022-08-19T11:58:51;21.50;99.90
41762;DHT22;27441;50.860;0.258;2022-08-19T12:01:19;21.50;99.90
41762;DHT22;27441;50.860;0.258;2022-08-19T12:03:47;21.50;99.90
41762;DHT22;27441;50.860;0.258;2022-08-19T12:06:17;21.50;99.90
41762;DHT22;27441;50.860;0.258;2022-08-19T12:08:44;21.50;99.90
41762;DHT22;27441;50.860;0.258;2022-08-19T12:11:12;21.50;99.90
41762;DHT22;27441;50.860;0.258;2022-08-19T12:13:38;21.90;99.90
41762;DHT22;27441;50.860;0.258;2022-08-19T12:16:08;22.10;99.90
41762;DHT22;27441;50.860;0.258;2022-08-19T12:18:36;22.30;99.90
41762;DHT22;27441;50.860;0.258;2022-08-19T12:21:02;22.60;99.90
41762;DHT22;27441;50.860;0.258;2022-08-19T12:23:29;22.80;99.90
41762;DHT22;27441;50.860;0.258;2022-08-19T12:25:55;22.90;99.90
41762;DHT22;27441;50.860;0.258;2022-08-19T12:28:23;23.00;99.90
41762;DHT22;27441;50.860;0.258;2022-08-19T12:30:50;22.80;99.90
41762;DHT22;27441;50.860;0.258;2022-08-19T12:33:18;22.40;99.90
41762;DHT22;27441;50.860;0.258;2022-08-19T12:35:45;22.00;99.90
41762;DHT22;27441;50.860;0.258;2022-08-19T12:38:12;21.70;99.90
41762;DHT22;27441;50.860;0.258;2022-08-19T12:40:38;21.70;99.90
41762;DHT22;27441;50.860;0.258;2022-08-19T12:43:08;21.80;99.90
41762;DHT22;27441;50.860;0.258;2022-08-19T12:45:34;21.80;99.90
41762;DHT22;27441;50.860;0.258;2022-08-19T12:48:00;21.60;99.90
41762;DHT22;27441;50.860;0.258;2022-08-19T12:50:26;21.30;99.90
41762;DHT22;27441;50.860;0.258;2022-08-19T12:52:51;20.90;99.90
41762;DHT22;27441;50.860;0.258;2022-08-19T12:55:18;20.40;99.90
41762;DHT22;27441;50.860;0.258;2022-08-19T12:57:44;20.10;99.90
41762;DHT22;27441;50.860;0.258;2022-08-19T13:00:16;20.00;99.90
41762;DHT22;27441;50.860;0.258;2022-08-19T13:02:44;19.90;99.90
41762;DHT22;27441;50.860;0.258;2022-08-19T13:05:14;19.90;99.90
41762;DHT22;27441;50.860;0.258;2022-08-19T13:07:42;20.00;99.90
41762;DHT22;27441;50.860;0.258;2022-08-19T13:10:11;20.10;99.90
41762;DHT22;27441;50.860;0.258;2022-08-19T13:12:38;20.30;99.90
41762;DHT22;27441;50.860;0.258;2022-08-19T13:15:05;20.50;99.90
41762;DHT22;27441;50.860;0.258;2022-08-19T13:17:31;20.70;99.90
41762;DHT22;27441;50.860;0.258;2022-08-19T13:19:58;20.80;99.90
41762;DHT22;27441;50.860;0.258;2022-08-19T13:22:24;20.90;99.90
41762;DHT22;27441;50.860;0.258;2022-08-19T13:24:50;21.10;99.90
41762;DHT22;27441;50.860;0.258;2022-08-19T13:27:16;21.30;99.90
41762;DHT22;27441;50.860;0.258;2022-08-19T13:29:42;21.30;99.90
41762;DHT22;27441;50.860;0.258;2022-08-19T13:32:28;21.20;99.90
41762;DHT22;27441;50.860;0.258;2022-08-19T13:35:12;21.30;99.90
41762;DHT22;27441;50.860;0.258;2022-08-19T13:37:38;21.40;99.90
41762;DHT22;27441;50.860;0.258;2022-08-19T13:40:09;21.40;99.90
41762;DHT22;27441;50.860;0.258;2022-08-19T13:42:42;21.50;99.90
41762;DHT22;27441;50.860;0.258;2022-08-19T13:45:09;21.60;99.90
41762;DHT22;27441;50.860;0.258;2022-08-19T13:47:36;21.90;99.90
41762;DHT22;27441;50.860;0.258;2022-08-19T13:50:08;22.00;99.90
41762;DHT22;27441;50.860;0.258;2022-08-19T13:52:34;22.10;99.90
41762;DHT22;27441;50.860;0.258;2022-08-19T13:55:00;22.10;99.90
41762;DHT22;27441;50.860;0.258;2022-08-19T13:57:26;22.20;99.90
41762;DHT22;27441;50.860;0.258;2022-08-19T13:59:51;22.20;99.90
41762;DHT22;27441;50.860;0.258;2022-08-19T14:02:18;22.20;99.90
41762;DHT22;27441;50.860;0.258;2022-08-19T14:04:44;22.30;99.90
41762;DHT22;27441;50.860;0.258;2022-08-19T14:07:10;22.40;99.90
41762;DHT22;27441;50.860;0.258;2022-08-19T14:09:35;22.60;99.90
41762;DHT22;27441;50.860;0.258;2022-08-19T14:12:01;22.50;99.90
41762;DHT22;27441;50.860;0.258;2022-08-19T14:14:27;22.50;99.90
41762;DHT22;27441;50.860;0.258;2022-08-19T14:16:52;22.50;99.90
41762;DHT22;27441;50.860;0.258;2022-08-19T14:19:18;22.50;99.90
41762;DHT22;27441;50.860;0.258;2022-08-19T14:21:44;22.50;99.90
41762;DHT22;27441;50.860;0.258;2022-08-19T14:24:10;22.50;99.90
41762;DHT22;27441;50.860;0.258;2022-08-19T14:26:36;22.40;99.90
41762;DHT22;27441;50.860;0.258;2022-08-19T14:29:02;22.30;99.90
41762;DHT22;27441;50.860;0.258;2022-08-19T14:31:27;22.40;99.90
41762;DHT22;27441;50.860;0.258;2022-08-19T14:33:53;22.30;99.90
41762;DHT22;27441;50.860;0.258;2022-08-19T14:36:20;22.20;99.90
41762;DHT22;27441;50.860;0.258;2022-08-19T14:38:46;22.20;99.90
41762;DHT22;27441;50.860;0.258;2022-08-19T14:41:21;22.10;99.90
41762;DHT22;27441;50.860;0.258;2022-08-19T14:43:49;22.20;99.90
41762;DHT22;27441;50.860;0.258;2022-08-19T14:46:17;22.20;99.90
41762;DHT22;27441;50.860;0.258;2022-08-19T14:48:46;22.20;99.90
41762;DHT22;27441;50.860;0.258;2022-08-19T14:51:12;22.30;99.90
41762;DHT22;27441;50.860;0.258;2022-08-19T14:53:40;22.20;99.90
41762;DHT22;27441;50.860;0.258;2022-08-19T14:56:13;22.10;99.90
41762;DHT22;27441;50.860;0.258;2022-08-19T14:58:42;22.10;99.90
41762;DHT22;27441;50.860;0.258;2022-08-19T15:01:09;22.00;99.90
41762;DHT22;27441;50.860;0.258;2022-08-19T15:03:35;22.20;99.90
41762;DHT22;27441;50.860;0.258;2022-08-19T15:06:03;22.20;99.90
41762;DHT22;27441;50.860;0.258;2022-08-19T15:08:30;22.20;99.90
41762;DHT22;27441;50.860;0.258;2022-08-19T15:10:57;22.30;99.90
41762;DHT22;27441;50.860;0.258;2022-08-19T15:13:25;22.40;99.90
41762;DHT22;27441;50.860;0.258;2022-08-19T15:15:52;22.40;99.90
41762;DHT22;27441;50.860;0.258;2022-08-19T15:18:18;22.50;99.90
41762;DHT22;27441;50.860;0.258;2022-08-19T15:20:46;22.60;99.90
41762;DHT22;27441;50.860;0.258;2022-08-19T15:23:14;22.70;99.90
41762;DHT22;27441;50.860;0.258;2022-08-19T15:25:40;22.60;99.90
41762;DHT22;27441;50.860;0.258;2022-08-19T15:28:07;22.50;99.90
41762;DHT22;27441;50.860;0.258;2022-08-19T15:30:37;22.30;99.90
41762;DHT22;27441;50.860;0.258;2022-08-19T15:33:03;22.30;99.90
41762;DHT22;27441;50.860;0.258;2022-08-19T15:35:29;22.20;99.90
41762;DHT22;27441;50.860;0.258;2022-08-19T15:37:55;22.10;99.90